createdAt,value
2018-12-07T00:00:56.856Z,88.50
2018-12-07T00:03:27.445Z,88.70
2018-12-07T00:05:56.397Z,88.60
2018-12-07T00:08:25.368Z,88.60
2018-12-07T00:10:54.432Z,88.70
2018-12-07T00:13:23.579Z,88.70
2018-12-07T00:15:52.573Z,88.80
2018-12-07T00:18:21.563Z,88.90
2018-12-07T00:20:50.557Z,88.70
2018-12-07T00:23:19.841Z,88.80
2018-12-07T00:25:48.830Z,88.80
2018-12-07T00:28:18.052Z,88.90
2018-12-07T00:30:47.030Z,88.90
2018-12-07T00:33:16.042Z,88.90
2018-12-07T00:35:45.001Z,88.80
2018-12-07T00:38:13.992Z,88.80
2018-12-07T00:40:43.027Z,88.80
2018-12-07T00:43:12.169Z,89.00
2018-12-07T00:45:41.121Z,88.70
2018-12-07T00:48:10.139Z,88.70
2018-12-07T00:50:39.136Z,88.40
2018-12-07T00:53:08.149Z,88.40
2018-12-07T00:55:39.907Z,88.30
2018-12-07T00:58:08.911Z,88.30
2018-12-07T01:00:37.920Z,88.20
2018-12-07T01:03:06.937Z,88.90
2018-12-07T01:05:36.038Z,88.20
2018-12-07T01:08:05.030Z,88.00
2018-12-07T01:10:34.046Z,88.10
2018-12-07T01:13:03.045Z,87.90
2018-12-07T01:15:32.154Z,87.90
2018-12-07T01:18:01.268Z,87.70
2018-12-07T01:20:30.432Z,87.70
2018-12-07T01:22:59.420Z,87.70
2018-12-07T01:25:28.393Z,87.70
2018-12-07T01:27:57.392Z,87.90
2018-12-07T01:30:26.719Z,87.60
2018-12-07T01:32:55.710Z,86.80
2018-12-07T01:35:24.717Z,87.40
2018-12-07T01:37:53.660Z,87.40
2018-12-07T01:40:22.644Z,87.20
2018-12-07T01:42:51.667Z,87.00
2018-12-07T01:45:20.645Z,86.80
2018-12-07T01:47:49.609Z,86.80
2018-12-07T01:50:18.621Z,86.90
2018-12-07T01:52:47.673Z,86.80
2018-12-07T01:55:16.666Z,86.70
2018-12-07T01:57:45.684Z,86.60
2018-12-07T02:00:14.736Z,86.50
2018-12-07T02:02:43.701Z,86.50
2018-12-07T02:05:12.888Z,86.30
2018-12-07T02:07:41.876Z,86.50
2018-12-07T02:10:11.015Z,86.60
2018-12-07T02:12:40.037Z,86.60
2018-12-07T02:15:09.021Z,86.60
2018-12-07T02:17:37.990Z,86.90
2018-12-07T02:20:07.188Z,86.80
2018-12-07T02:22:36.445Z,86.70
2018-12-07T02:25:06.072Z,86.80
2018-12-07T02:27:40.408Z,90.20
2018-12-07T02:30:09.535Z,86.90
2018-12-07T02:32:38.523Z,86.90
2018-12-07T02:35:07.617Z,86.90
2018-12-07T02:37:36.588Z,86.90
2018-12-07T02:40:06.298Z,86.90
2018-12-07T02:42:35.311Z,86.90
2018-12-07T02:45:05.123Z,87.00
2018-12-07T02:47:34.097Z,87.10
2018-12-07T02:50:03.241Z,87.00
2018-12-07T02:52:32.215Z,87.00
2018-12-07T02:55:01.212Z,87.00
2018-12-07T02:57:30.566Z,87.10
2018-12-07T02:59:59.622Z,87.10
2018-12-07T03:02:28.632Z,86.80
2018-12-07T03:04:57.624Z,86.80
2018-12-07T03:07:26.617Z,86.80
2018-12-07T03:09:55.624Z,86.70
2018-12-07T03:12:24.592Z,86.60
2018-12-07T03:14:53.605Z,86.40
2018-12-07T03:17:22.592Z,86.30
2018-12-07T03:19:51.663Z,86.20
2018-12-07T03:22:20.615Z,86.10
2018-12-07T03:24:49.631Z,85.90
2018-12-07T03:27:18.609Z,85.80
2018-12-07T03:29:47.622Z,86.00
2018-12-07T03:32:16.600Z,85.80
2018-12-07T03:34:45.584Z,85.90
2018-12-07T03:37:14.617Z,85.70
2018-12-07T03:39:43.624Z,85.60
2018-12-07T03:42:12.608Z,85.40
2018-12-07T03:44:41.622Z,85.40
2018-12-07T03:47:10.607Z,85.30
2018-12-07T03:49:39.686Z,85.40
2018-12-07T03:52:08.655Z,85.40
2018-12-07T03:54:37.652Z,85.30
2018-12-07T03:57:06.631Z,85.20
2018-12-07T03:59:35.622Z,85.00
2018-12-07T04:02:05.188Z,85.00
2018-12-07T04:04:34.402Z,85.70
2018-12-07T04:07:03.409Z,85.20
2018-12-07T04:09:32.428Z,85.00
2018-12-07T04:12:01.404Z,85.20
2018-12-07T04:14:30.490Z,85.50
2018-12-07T04:16:59.469Z,85.20
2018-12-07T04:19:28.473Z,85.00
2018-12-07T04:21:57.444Z,85.10
2018-12-07T04:24:26.432Z,85.00
2018-12-07T04:26:55.413Z,84.80
2018-12-07T04:29:24.474Z,85.00
2018-12-07T04:31:53.755Z,84.90
2018-12-07T04:34:23.928Z,85.20
2018-12-07T04:36:52.904Z,84.90
2018-12-07T04:39:21.931Z,84.90
2018-12-07T04:41:50.892Z,85.70
2018-12-07T04:44:19.905Z,84.20
2018-12-07T04:46:48.877Z,84.80
2018-12-07T04:49:17.893Z,84.60
2018-12-07T04:51:47.009Z,84.70
2018-12-07T04:54:16.001Z,84.80
2018-12-07T04:56:44.981Z,84.80
2018-12-07T04:59:13.973Z,84.70
2018-12-07T05:01:43.700Z,84.70
2018-12-07T05:04:12.662Z,84.60
2018-12-07T05:06:41.680Z,84.50
2018-12-07T05:09:10.644Z,84.80
2018-12-07T05:11:39.642Z,84.50
2018-12-07T05:14:08.993Z,84.60
2018-12-07T05:16:38.488Z,84.60
2018-12-07T05:19:07.471Z,84.70
2018-12-07T05:21:36.441Z,84.70
2018-12-07T05:24:05.410Z,84.80
2018-12-07T05:26:34.422Z,84.70
2018-12-07T05:29:03.443Z,84.90
2018-12-07T05:31:32.561Z,85.00
2018-12-07T05:34:01.567Z,84.70
2018-12-07T05:36:30.743Z,84.70
2018-12-07T05:38:59.821Z,85.00
2018-12-07T05:41:28.836Z,84.80
2018-12-07T05:43:58.375Z,85.00
2018-12-07T05:46:27.493Z,84.90
2018-12-07T05:48:56.486Z,85.00
2018-12-07T05:51:25.632Z,86.00
2018-12-07T05:53:54.628Z,85.40
2018-12-07T05:56:23.632Z,85.30
2018-12-07T05:58:52.637Z,85.30
2018-12-07T06:01:21.637Z,85.20
2018-12-07T06:03:50.645Z,85.20
2018-12-07T06:06:19.698Z,85.20
2018-12-07T06:08:48.669Z,85.40
2018-12-07T06:11:24.057Z,85.70
2018-12-07T06:13:53.032Z,85.60
2018-12-07T06:16:22.069Z,85.60
2018-12-07T06:18:51.071Z,85.50
2018-12-07T06:21:20.639Z,85.30
2018-12-07T06:23:49.621Z,86.20
2018-12-07T06:26:18.650Z,85.40
2018-12-07T06:28:47.647Z,85.50
2018-12-07T06:31:16.840Z,85.40
2018-12-07T06:33:45.833Z,85.50
2018-12-07T06:36:14.855Z,85.60
2018-12-07T06:38:43.877Z,85.40
2018-12-07T06:41:12.982Z,85.70
2018-12-07T06:43:42.013Z,85.30
2018-12-07T06:46:11.049Z,85.00
2018-12-07T06:48:40.028Z,85.30
2018-12-07T06:51:09.093Z,85.40
2018-12-07T06:53:38.072Z,85.40
2018-12-07T06:56:07.057Z,85.40
2018-12-07T06:58:36.153Z,85.30
2018-12-07T07:01:05.125Z,85.30
2018-12-07T07:03:34.102Z,85.20
2018-12-07T07:06:03.237Z,85.30
2018-12-07T07:08:32.245Z,85.50
2018-12-07T07:11:01.272Z,85.20
2018-12-07T07:13:30.316Z,85.00
2018-12-07T07:15:59.333Z,85.00
2018-12-07T07:18:28.321Z,84.80
2018-12-07T07:20:57.376Z,84.80
2018-12-07T07:23:26.469Z,84.60
2018-12-07T07:25:55.554Z,84.70
2018-12-07T07:28:24.583Z,84.50
2018-12-07T07:30:53.582Z,84.70
2018-12-07T07:33:22.678Z,84.40
2018-12-07T07:35:51.758Z,84.60
2018-12-07T07:38:20.715Z,84.20
2018-12-07T07:40:49.712Z,84.20
2018-12-07T07:43:18.689Z,84.00
2018-12-07T07:45:47.701Z,83.80
2018-12-07T07:48:16.691Z,83.70
2018-12-07T07:50:45.691Z,81.60
2018-12-07T07:53:14.665Z,84.10
2018-12-07T07:55:43.672Z,83.80
2018-12-07T07:58:12.666Z,83.80
2018-12-07T08:00:41.676Z,83.40
2018-12-07T08:03:10.668Z,83.80
2018-12-07T08:05:39.712Z,82.70
2018-12-07T08:08:08.793Z,83.20
2018-12-07T08:10:37.797Z,82.60
2018-12-07T08:13:06.778Z,82.70
2018-12-07T08:15:35.805Z,82.80
2018-12-07T08:18:05.148Z,82.50
2018-12-07T08:20:34.504Z,82.10
2018-12-07T08:23:03.517Z,81.90
2018-12-07T08:25:32.501Z,81.70
2018-12-07T08:28:01.508Z,81.70
2018-12-07T08:30:30.508Z,81.80
2018-12-07T08:32:59.524Z,81.80
2018-12-07T08:35:28.494Z,81.80
2018-12-07T08:37:57.511Z,81.00
2018-12-07T08:40:27.097Z,81.40
2018-12-07T08:43:02.393Z,81.40
2018-12-07T08:45:31.390Z,80.50
2018-12-07T08:48:00.429Z,80.00
2018-12-07T08:50:29.757Z,78.60
2018-12-07T08:52:58.747Z,78.60
2018-12-07T08:55:27.755Z,79.50
2018-12-07T08:57:56.804Z,78.80
2018-12-07T09:00:25.847Z,78.70
2018-12-07T09:02:54.897Z,76.70
2018-12-07T09:05:23.924Z,76.20
2018-12-07T09:07:52.952Z,76.70
2018-12-07T09:10:22.108Z,77.30
2018-12-07T09:12:51.093Z,78.00
2018-12-07T09:15:20.198Z,78.70
2018-12-07T09:17:49.193Z,79.40
2018-12-07T09:20:18.231Z,78.90
2018-12-07T09:22:47.229Z,80.30
2018-12-07T09:25:16.280Z,79.00
2018-12-07T09:27:45.281Z,78.70
2018-12-07T09:30:14.262Z,78.80
2018-12-07T09:32:43.509Z,78.90
2018-12-07T09:35:12.642Z,78.40
2018-12-07T09:37:41.699Z,78.60
2018-12-07T09:40:10.792Z,78.60
2018-12-07T09:42:39.922Z,78.60
2018-12-07T09:45:08.933Z,78.40
2018-12-07T09:47:38.192Z,78.90
2018-12-07T09:50:08.096Z,78.70
2018-12-07T09:52:37.312Z,78.40
2018-12-07T09:55:06.336Z,78.80
2018-12-07T09:57:35.344Z,79.50
2018-12-07T10:00:05.095Z,79.70
2018-12-07T10:02:34.085Z,78.90
2018-12-07T10:05:03.364Z,78.40
2018-12-07T10:07:32.369Z,79.00
2018-12-07T10:10:01.485Z,79.10
2018-12-07T10:12:30.612Z,78.10
2018-12-07T10:14:59.756Z,77.90
2018-12-07T10:17:30.020Z,78.10
2018-12-07T10:19:59.197Z,78.30
2018-12-07T10:22:28.200Z,78.40
2018-12-07T10:24:57.175Z,77.40
2018-12-07T10:27:26.177Z,77.40
2018-12-07T10:29:55.190Z,78.00
2018-12-07T10:32:24.293Z,78.60
2018-12-07T10:34:53.265Z,79.00
2018-12-07T10:37:22.292Z,78.40
2018-12-07T10:39:51.294Z,77.70
2018-12-07T10:42:20.279Z,77.60
2018-12-07T10:44:49.273Z,78.30
2018-12-07T10:47:18.313Z,78.20
2018-12-07T10:49:47.280Z,78.30
2018-12-07T10:52:16.284Z,78.30
2018-12-07T10:54:45.283Z,78.20
2018-12-07T10:57:14.408Z,77.60
2018-12-07T10:59:43.381Z,76.90
2018-12-07T11:02:17.702Z,77.20
2018-12-07T11:04:51.924Z,76.30
2018-12-07T11:07:26.183Z,75.30
2018-12-07T11:10:00.630Z,76.00
2018-12-07T11:12:35.032Z,77.10
2018-12-07T11:15:09.777Z,77.30
2018-12-07T11:17:43.989Z,76.50
2018-12-07T11:20:18.573Z,76.70
2018-12-07T11:22:52.775Z,76.20
2018-12-07T11:25:27.030Z,75.70
2018-12-07T11:28:01.476Z,75.40
2018-12-07T11:30:35.767Z,75.60
2018-12-07T11:33:45.457Z,74.60
2018-12-07T11:36:14.540Z,75.30
2018-12-07T11:38:43.533Z,74.50
2018-12-07T11:41:12.512Z,75.00
2018-12-07T11:43:41.504Z,75.50
2018-12-07T11:46:10.480Z,75.40
2018-12-07T11:48:39.481Z,75.00
2018-12-07T11:51:08.603Z,74.30
2018-12-07T11:53:37.605Z,74.70
2018-12-07T11:56:06.669Z,74.10
2018-12-07T11:58:35.679Z,74.90
2018-12-07T12:01:04.772Z,74.20
2018-12-07T12:03:33.846Z,74.30
2018-12-07T12:06:02.835Z,74.30
2018-12-07T12:08:31.838Z,74.50
2018-12-07T12:11:00.923Z,74.50
2018-12-07T12:13:30.046Z,74.20
2018-12-07T12:15:59.087Z,72.40
2018-12-07T12:18:28.055Z,72.60
2018-12-07T12:20:57.124Z,72.90
2018-12-07T12:23:26.133Z,72.30
2018-12-07T12:25:55.215Z,72.80
2018-12-07T12:28:24.175Z,72.90
2018-12-07T12:30:53.176Z,72.20
2018-12-07T12:33:22.496Z,71.60
2018-12-07T12:35:51.494Z,70.30
2018-12-07T12:38:20.438Z,71.40
2018-12-07T12:40:49.533Z,70.60
2018-12-07T12:43:18.514Z,72.60
2018-12-07T12:45:48.217Z,69.70
2018-12-07T12:48:17.200Z,70.10
2018-12-07T12:50:46.198Z,70.10
2018-12-07T12:53:15.197Z,69.30
2018-12-07T12:55:44.185Z,69.70
2018-12-07T12:58:13.263Z,68.90
2018-12-07T13:00:42.349Z,69.00
2018-12-07T13:03:11.336Z,70.90
2018-12-07T13:05:40.335Z,69.30
2018-12-07T13:08:09.311Z,66.60
2018-12-07T13:10:38.369Z,62.60
2018-12-07T13:13:07.339Z,59.40
2018-12-07T13:15:36.317Z,55.90
2018-12-07T13:18:05.623Z,56.00
2018-12-07T13:20:34.645Z,54.90
2018-12-07T13:23:03.621Z,54.30
2018-12-07T13:25:32.643Z,56.40
2018-12-07T13:28:01.640Z,59.00
2018-12-07T13:30:30.651Z,60.60
2018-12-07T13:32:59.634Z,59.10
2018-12-07T13:35:28.647Z,57.70
2018-12-07T13:37:57.618Z,55.60
2018-12-07T13:40:26.875Z,53.70
2018-12-07T13:42:56.077Z,50.00
2018-12-07T13:45:25.309Z,46.70
2018-12-07T13:47:54.521Z,48.20
2018-12-07T13:50:28.869Z,48.80
2018-12-07T13:52:57.973Z,52.50
2018-12-07T13:55:27.082Z,56.70
2018-12-07T13:57:56.679Z,57.20
2018-12-07T14:00:25.913Z,58.70
2018-12-07T14:02:55.105Z,59.90
2018-12-07T14:05:31.783Z,60.60
2018-12-07T14:07:58.765Z,60.60
2018-12-07T14:10:27.891Z,61.80
2018-12-07T14:12:57.269Z,63.00
2018-12-07T14:15:26.545Z,63.70
2018-12-07T14:17:55.582Z,63.30
2018-12-07T14:20:24.969Z,58.70
2018-12-07T14:22:53.993Z,59.40
2018-12-07T14:25:23.735Z,61.90
2018-12-07T14:27:53.370Z,64.10
2018-12-07T14:30:22.530Z,65.00
2018-12-07T14:32:51.704Z,66.30
2018-12-07T14:35:20.819Z,67.70
2018-12-07T14:37:50.081Z,67.70
2018-12-07T14:40:19.406Z,68.10
2018-12-07T14:42:48.740Z,68.20
2018-12-07T14:45:17.923Z,68.20
2018-12-07T14:47:47.013Z,68.50
2018-12-07T14:50:16.149Z,68.60
2018-12-07T14:52:45.221Z,68.10
2018-12-07T14:55:14.484Z,68.00
2018-12-07T14:57:43.620Z,68.30
2018-12-07T15:00:13.035Z,68.40
2018-12-07T15:02:42.222Z,69.00
2018-12-07T15:05:11.518Z,69.50
2018-12-07T15:07:40.833Z,70.30
2018-12-07T15:10:10.227Z,70.50
2018-12-07T15:12:39.474Z,70.90
2018-12-07T15:15:09.006Z,71.10
2018-12-07T15:17:38.287Z,71.70
2018-12-07T15:20:09.417Z,71.80
2018-12-07T15:22:38.470Z,72.30
2018-12-07T15:25:07.911Z,73.00
2018-12-07T15:27:37.001Z,73.60
2018-12-07T15:30:07.990Z,74.00
2018-12-07T15:32:37.034Z,74.40
2018-12-07T15:35:07.980Z,74.40
2018-12-07T15:37:37.125Z,74.90
2018-12-07T15:40:08.555Z,74.90
2018-12-07T15:42:37.674Z,75.00
2018-12-07T15:45:07.786Z,75.40
2018-12-07T15:47:37.057Z,76.30
2018-12-07T15:50:08.338Z,76.90
2018-12-07T15:52:37.464Z,77.90
2018-12-07T15:55:07.198Z,77.60
2018-12-07T15:57:36.403Z,78.10
2018-12-07T16:00:06.998Z,78.60
2018-12-07T16:02:36.107Z,78.20
2018-12-07T16:05:06.157Z,78.80
2018-12-07T16:07:35.582Z,78.70
2018-12-07T16:10:05.799Z,78.40
2018-12-07T16:12:35.286Z,78.40
2018-12-07T16:15:04.810Z,78.60
2018-12-07T16:17:34.004Z,78.30
2018-12-07T16:20:03.412Z,78.70
2018-12-07T16:22:32.784Z,78.50
2018-12-07T16:25:02.070Z,78.80
2018-12-07T16:27:31.257Z,78.60
2018-12-07T16:30:00.453Z,79.00
2018-12-07T16:32:29.716Z,79.20
2018-12-07T16:34:58.914Z,79.50
2018-12-07T16:37:28.157Z,79.60
2018-12-07T16:39:57.363Z,80.00
2018-12-07T16:42:26.718Z,80.60
2018-12-07T16:44:56.090Z,80.80
2018-12-07T16:47:25.842Z,81.10
2018-12-07T16:49:55.119Z,81.20
2018-12-07T16:52:24.596Z,81.50
2018-12-07T16:54:54.114Z,81.40
2018-12-07T16:57:23.215Z,81.80
2018-12-07T16:59:52.396Z,81.80
2018-12-07T17:02:21.692Z,81.90
2018-12-07T17:04:50.693Z,81.80
2018-12-07T17:07:19.833Z,81.90
2018-12-07T17:09:48.899Z,82.50
2018-12-07T17:12:17.929Z,82.80
2018-12-07T17:14:47.021Z,83.00
2018-12-07T17:17:16.544Z,83.40
2018-12-07T17:19:45.754Z,83.70
2018-12-07T17:22:15.034Z,83.90
2018-12-07T17:24:44.449Z,84.10
2018-12-07T17:27:13.899Z,84.30
2018-12-07T17:29:43.066Z,84.40
2018-12-07T17:32:12.273Z,84.80
2018-12-07T17:34:41.470Z,85.00
